Time;durP1;ratioP1;P1;durP2;ratioP2;P2;SDS_P1;SDS_P2;PMS_P1;PMS_P2;Temp;Humidity;BMP_temperature;BMP_pressure;BME280_temperature;BME280_humidity;BME280_pressure;Samples;Min_cycle;Max_cycle;Signal;HPM_P1;HPM_P2
2022/08/08 00:00:16;;;;;;;4.88;2.85;;;13.70;94.50;;;;;;5048384;28;20875;-65
2022/08/08 00:03:03;;;;;;;;;;;13.60;94.60;;;;;;5053008;28;20028;-66
2022/08/08 00:05:43;;;;;;;4.68;2.72;;;13.60;94.80;;;;;;5048695;28;20007;-65
2022/08/08 00:08:28;;;;;;;6.13;2.58;;;13.60;94.90;;;;;;5048693;28;20806;-66
2022/08/08 00:11:05;;;;;;;5.40;2.88;;;13.60;95.10;;;;;;5048552;28;20546;-65
2022/08/08 00:13:39;;;;;;;4.80;2.50;;;13.50;95.30;;;;;;5047057;28;20469;-66
2022/08/08 00:16:21;;;;;;;4.57;3.05;;;13.50;95.30;;;;;;5051896;28;20154;-66
2022/08/08 00:19:26;;;;;;;4.90;2.17;;;13.50;95.60;;;;;;5051950;28;20040;-67
2022/08/08 00:22:07;;;;;;;4.30;2.70;;;13.50;95.70;;;;;;5061908;28;20391;-66
2022/08/08 00:24:37;;;;;;;4.13;2.65;;;13.60;95.60;;;;;;5050525;28;20028;-67
2022/08/08 00:27:07;;;;;;;5.07;2.80;;;13.50;95.70;;;;;;5050996;28;20437;-67
2022/08/08 00:29:56;;;;;;;4.82;2.83;;;13.60;95.70;;;;;;5063148;28;20035;-66
2022/08/08 00:32:34;;;;;;;5.00;3.28;;;13.60;95.70;;;;;;5070119;28;20020;-66
2022/08/08 00:35:23;;;;;;;4.47;2.90;;;13.70;95.70;;;;;;5050577;28;20453;-66
2022/08/08 00:38:29;;;;;;;6.30;3.10;;;13.70;95.90;;;;;;5048607;28;20036;-66
2022/08/08 00:41:11;;;;;;;4.95;3.17;;;13.70;95.90;;;;;;5047635;28;20040;-66
2022/08/08 00:44:09;;;;;;;6.65;3.00;;;13.80;95.80;;;;;;5049191;28;20047;-65
2022/08/08 00:47:02;;;;;;;7.13;3.30;;;13.80;95.90;;;;;;5048381;28;20025;-65
2022/08/08 00:49:56;;;;;;;5.18;2.90;;;13.60;95.90;;;;;;5048637;28;20025;-65
2022/08/08 00:53:02;;;;;;;4.60;2.90;;;13.50;96.00;;;;;;5048148;28;20032;-66
2022/08/08 00:55:41;;;;;;;6.45;2.97;;;13.40;96.20;;;;;;5051595;28;20028;-65
2022/08/08 00:58:21;;;;;;;5.82;3.08;;;13.30;96.40;;;;;;5048034;28;20032;-65
2022/08/08 01:01:14;;;;;;;5.32;2.90;;;13.30;96.50;;;;;;5046668;28;20059;-66
2022/08/08 01:04:13;;;;;;;5.65;3.30;;;13.20;96.60;;;;;;5049295;28;20041;-66
2022/08/08 01:07:06;;;;;;;5.38;3.20;;;13.10;96.50;;;;;;5045835;28;20128;-67
2022/08/08 01:10:02;;;;;;;6.25;2.90;;;13.10;96.70;;;;;;5047193;28;20416;-66
2022/08/08 01:12:37;;;;;;;4.75;3.10;;;13.00;96.50;;;;;;5046780;28;20487;-65
2022/08/08 01:15:40;;;;;;;7.90;3.70;;;12.90;96.70;;;;;;5060122;28;20320;-67
2022/08/08 01:18:43;;;;;;;4.88;3.30;;;12.90;96.70;;;;;;5068987;28;20032;-66
2022/08/08 01:21:32;;;;;;;5.38;3.55;;;12.80;96.60;;;;;;5067430;28;20294;-66
2022/08/08 01:24:33;;;;;;;4.47;3.10;;;12.80;96.60;;;;;;5052573;28;20112;-65
2022/08/08 01:27:40;;;;;;;6.78;3.92;;;12.90;96.50;;;;;;5049207;28;20075;-66
2022/08/08 01:30:27;;;;;;;5.07;3.40;;;12.90;96.70;;;;;;5026485;28;20063;-67
2022/08/08 01:33:20;;;;;;;5.55;3.22;;;12.90;96.70;;;;;;5048074;28;20029;-66
2022/08/08 01:36:07;;;;;;;6.85;3.63;;;12.90;96.70;;;;;;5045925;28;20060;-66
2022/08/08 01:38:42;;;;;;;4.90;3.78;;;13.00;96.90;;;;;;5050635;28;20033;-66
2022/08/08 01:41:29;;;;;;;5.53;3.90;;;13.00;96.90;;;;;;5045707;28;20364;-65
2022/08/08 01:44:22;;;;;;;5.53;3.42;;;13.10;96.80;;;;;;5049336;28;20060;-66
2022/08/08 01:47:11;;;;;;;6.60;3.38;;;13.10;96.80;;;;;;5046802;28;20037;-66
2022/08/08 01:50:21;;;;;;;6.13;3.88;;;13.10;96.90;;;;;;5047977;28;20803;-65
2022/08/08 01:52:52;;;;;;;5.82;3.60;;;13.20;96.80;;;;;;5051611;28;20113;-66
2022/08/08 01:55:48;;;;;;;4.45;3.30;;;13.30;97.00;;;;;;5052195;28;20088;-66
2022/08/08 01:58:29;;;;;;;6.90;3.25;;;13.20;97.00;;;;;;5052261;28;20143;-66
2022/08/08 02:01:15;;;;;;;9.35;3.80;;;13.10;96.80;;;;;;5048811;28;20664;-66
2022/08/08 02:03:56;;;;;;;8.57;3.70;;;13.00;96.70;;;;;;5052845;28;20033;-66
2022/08/08 02:06:35;;;;;;;7.20;4.43;;;13.00;96.70;;;;;;5050731;28;20555;-66
2022/08/08 02:09:12;;;;;;;6.35;3.97;;;12.90;96.70;;;;;;5049067;28;20048;-66
2022/08/08 02:11:43;;;;;;;7.00;4.32;;;13.00;96.70;;;;;;5050291;28;20414;-66
2022/08/08 02:14:40;;;;;;;5.28;3.75;;;13.10;96.80;;;;;;5053865;28;20063;-67
2022/08/08 02:17:42;;;;;;;5.97;3.63;;;13.20;97.00;;;;;;5051912;28;20055;-67
2022/08/08 02:20:31;;;;;;;8.60;4.18;;;13.20;96.90;;;;;;5052892;28;20062;-67
2022/08/08 02:23:37;;;;;;;6.25;4.22;;;13.10;96.80;;;;;;5069268;28;20032;-66
2022/08/08 02:26:14;;;;;;;6.82;4.22;;;13.00;96.70;;;;;;5012867;28;20053;-67
2022/08/08 02:28:51;;;;;;;5.50;3.95;;;12.90;96.70;;;;;;5059696;28;20032;-67
2022/08/08 02:31:26;;;;;;;6.85;4.18;;;12.70;96.70;;;;;;5075308;28;20024;-67
2022/08/08 02:34:15;;;;;;;5.78;4.43;;;12.60;96.40;;;;;;5073097;28;20029;-67
2022/08/08 02:37:11;;;;;;;8.20;4.68;;;12.40;96.10;;;;;;5071057;28;20083;-67
2022/08/08 02:40:19;;;;;;;6.18;4.38;;;12.30;95.70;;;;;;5073109;28;20728;-67
2022/08/08 02:43:03;;;;;;;7.00;4.57;;;12.20;95.50;;;;;;5077020;28;20044;-65
2022/08/08 02:45:40;;;;;;;7.60;4.53;;;12.10;95.10;;;;;;5075555;28;20032;-67
2022/08/08 02:48:31;;;;;;;7.40;4.63;;;12.10;94.90;;;;;;5065747;28;20036;-66
2022/08/08 02:51:24;;;;;;;6.38;4.55;;;12.00;94.60;;;;;;5071878;28;20055;-65
2022/08/08 02:54:06;;;;;;;6.03;4.45;;;12.00;94.70;;;;;;5059016;28;20108;-66
2022/08/08 02:56:43;;;;;;;6.72;5.22;;;11.90;94.40;;;;;;5074588;28;20113;-65
2022/08/08 02:59:21;;;;;;;8.43;5.30;;;11.90;93.70;;;;;;5075102;28;20017;-65
2022/08/08 03:02:05;;;;;;;6.25;4.57;;;11.90;93.70;;;;;;5057187;28;20111;-66
2022/08/08 03:05:07;;;;;;;8.02;5.50;;;12.00;94.10;;;;;;5053501;28;20434;-66
2022/08/08 03:08:24;;;;;;;10.13;5.53;;;12.00;94.30;;;;;;5053340;28;20140;-67
2022/08/08 03:11:14;;;;;;;6.22;4.63;;;12.10;94.80;;;;;;5053113;28;20044;-66
2022/08/08 03:13:54;;;;;;;6.45;4.93;;;12.20;94.90;;;;;;5062666;28;20028;-68
2022/08/08 03:16:37;;;;;;;6.70;5.25;;;12.20;95.20;;;;;;5054384;28;20138;-67
2022/08/08 03:19:25;;;;;;;8.43;5.65;;;12.30;95.30;;;;;;5050418;28;20032;-66
2022/08/08 03:21:50;;;;;;;7.88;5.57;;;12.30;95.50;;;;;;5054740;28;20033;-66
2022/08/08 03:24:19;;;;;;;10.13;5.93;;;12.30;95.70;;;;;;5052678;28;20460;-66
2022/08/08 03:26:57;;;;;;;8.20;5.70;;;12.30;95.70;;;;;;5050367;28;20032;-66
2022/08/08 03:29:29;;;;;;;7.50;5.78;;;12.30;95.80;;;;;;5058794;28;20025;-66
2022/08/08 03:34:43;;;;;;;7.45;5.80;;;12.20;95.30;;;;;;5052947;28;20035;-66
2022/08/08 03:37:13;;;;;;;7.60;5.65;;;12.20;95.10;;;;;;5050950;28;20115;-67
2022/08/08 03:39:42;;;;;;;7.35;5.47;;;12.30;95.50;;;;;;5049444;28;20055;-67
2022/08/08 03:42:22;;;;;;;7.10;5.55;;;12.30;95.40;;;;;;5055074;28;20102;-67
2022/08/08 03:44:48;;;;;;;8.85;5.75;;;12.30;95.60;;;;;;5053485;28;20043;-67
2022/08/08 03:47:19;;;;;;;7.53;6.10;;;12.30;95.50;;;;;;5050066;28;20033;-67
2022/08/08 03:49:44;;;;;;;9.57;6.38;;;12.30;95.60;;;;;;5051053;28;20021;-67
2022/08/08 03:52:11;;;;;;;7.25;5.32;;;12.20;95.40;;;;;;5051843;28;20040;-66
2022/08/08 03:54:37;;;;;;;6.93;5.40;;;12.30;95.30;;;;;;5048783;28;20025;-67
2022/08/08 03:57:10;;;;;;;8.43;6.03;;;12.30;95.60;;;;;;5053517;28;20460;-67
2022/08/08 03:59:41;;;;;;;8.30;6.10;;;12.30;95.20;;;;;;5052137;28;20416;-66
2022/08/08 04:02:18;;;;;;;9.82;5.45;;;12.30;95.00;;;;;;5048080;28;20047;-67
2022/08/08 04:04:45;;;;;;;8.27;6.50;;;12.30;95.00;;;;;;5050608;28;20032;-67
2022/08/08 04:07:11;;;;;;;7.72;5.93;;;12.30;95.30;;;;;;5050336;28;20048;-65
2022/08/08 04:09:37;;;;;;;9.55;5.75;;;12.30;94.90;;;;;;5055650;28;20029;-66
2022/08/08 04:12:03;;;;;;;8.10;6.22;;;12.30;94.90;;;;;;5051794;28;20032;-66
2022/08/08 04:14:29;;;;;;;8.43;6.22;;;12.30;94.90;;;;;;5050841;28;20039;-67
2022/08/08 04:16:55;;;;;;;9.30;6.50;;;12.30;94.70;;;;;;5046003;28;20836;-67
2022/08/08 04:19:21;;;;;;;8.85;6.22;;;12.30;94.70;;;;;;5047564;28;20500;-67
2022/08/08 04:21:47;;;;;;;9.38;7.32;;;12.40;94.90;;;;;;5055438;28;20048;-66
2022/08/08 04:24:12;;;;;;;7.43;6.40;;;12.40;94.90;;;;;;5063648;28;20064;-67
2022/08/08 04:26:38;;;;;;;9.52;6.78;;;12.40;94.80;;;;;;5048452;28;20028;-66
2022/08/08 04:29:04;;;;;;;8.00;6.30;;;12.40;94.80;;;;;;5058482;28;20078;-66
2022/08/08 04:31:29;;;;;;;8.18;6.80;;;12.40;94.60;;;;;;5067113;28;20104;-66
2022/08/08 04:33:55;;;;;;;8.60;6.30;;;12.40;94.50;;;;;;5064194;28;20037;-66
2022/08/08 04:36:21;;;;;;;8.00;5.95;;;12.50;94.70;;;;;;5051134;28;20435;-66
2022/08/08 04:38:46;;;;;;;11.30;6.57;;;12.60;94.80;;;;;;5052109;28;20033;-67
2022/08/08 04:41:12;;;;;;;9.70;6.85;;;12.60;95.00;;;;;;5047717;28;20107;-66
2022/08/08 04:43:38;;;;;;;10.13;6.50;;;12.60;95.10;;;;;;5049782;28;20035;-67
2022/08/08 04:46:04;;;;;;;7.70;5.80;;;12.60;94.80;;;;;;5049755;28;20413;-66
2022/08/08 04:48:30;;;;;;;8.27;5.82;;;12.60;94.70;;;;;;5049854;28;20025;-66
2022/08/08 04:50:56;;;;;;;9.77;7.10;;;12.60;94.70;;;;;;5052612;28;20555;-66
2022/08/08 04:53:22;;;;;;;9.32;6.45;;;12.70;94.60;;;;;;5050360;28;20025;-66
2022/08/08 04:55:47;;;;;;;7.97;6.40;;;12.80;94.90;;;;;;5048665;28;20385;-66
2022/08/08 04:58:14;;;;;;;7.95;6.60;;;12.80;95.20;;;;;;5050400;28;20032;-66
2022/08/08 05:00:42;;;;;;;8.45;6.78;;;12.80;95.10;;;;;;5049599;28;20346;-67
2022/08/08 05:03:08;;;;;;;8.20;6.38;;;12.80;94.70;;;;;;5046590;28;20048;-67
2022/08/08 05:05:34;;;;;;;8.02;6.38;;;12.90;95.00;;;;;;5052272;28;20028;-66
2022/08/08 05:07:59;;;;;;;9.88;6.70;;;12.90;95.50;;;;;;5057670;28;20473;-66
2022/08/08 05:10:28;;;;;;;8.73;6.97;;;13.00;95.60;;;;;;5050287;28;20349;-67
2022/08/08 05:12:55;;;;;;;8.60;6.55;;;13.00;95.60;;;;;;5048948;28;20103;-66
2022/08/08 05:15:21;;;;;;;8.80;6.38;;;13.10;95.60;;;;;;5046609;28;20084;-66
2022/08/08 05:17:47;;;;;;;9.50;6.43;;;13.10;95.80;;;;;;5056808;28;20412;-66
2022/08/08 05:20:12;;;;;;;9.13;6.57;;;13.10;95.60;;;;;;5052916;28;20032;-66
2022/08/08 05:22:38;;;;;;;8.18;6.93;;;13.10;95.70;;;;;;5060721;28;20425;-66
2022/08/08 05:25:04;;;;;;;8.30;6.25;;;13.10;95.80;;;;;;5054528;28;20025;-66
2022/08/08 05:27:30;;;;;;;8.30;6.95;;;13.20;95.70;;;;;;5056552;28;20314;-66
2022/08/08 05:29:56;;;;;;;9.43;6.93;;;13.30;96.00;;;;;;5075155;28;20027;-66
2022/08/08 05:32:21;;;;;;;8.20;6.25;;;13.40;95.90;;;;;;5072056;28;20036;-66
2022/08/08 05:34:49;;;;;;;8.55;6.10;;;13.50;96.40;;;;;;5073210;28;20039;-66
2022/08/08 05:37:19;;;;;;;8.77;6.18;;;13.60;96.40;;;;;;5073762;28;20035;-66
2022/08/08 05:39:49;;;;;;;10.40;6.43;;;13.70;96.70;;;;;;5061727;28;20040;-66
2022/08/08 05:42:15;;;;;;;8.98;5.90;;;14.00;97.30;;;;;;5066480;28;20029;-67
2022/08/08 05:44:45;;;;;;;9.25;5.90;;;14.10;97.40;;;;;;5081605;28;20021;-66
2022/08/08 05:47:15;;;;;;;8.93;6.78;;;14.30;97.90;;;;;;5070249;28;20041;-66
2022/08/08 05:49:43;;;;;;;9.32;6.03;;;14.50;97.80;;;;;;5069786;28;20024;-66
2022/08/08 05:52:09;;;;;;;8.93;6.20;;;14.60;97.80;;;;;;5066164;28;20111;-66
2022/08/08 05:54:35;;;;;;;7.43;5.38;;;14.80;97.80;;;;;;5070351;28;20032;-66
2022/08/08 05:57:01;;;;;;;10.45;6.05;;;15.00;97.50;;;;;;5077025;28;20417;-67
2022/08/08 05:59:31;;;;;;;7.57;5.47;;;15.20;97.20;;;;;;5065219;28;20153;-67
2022/08/08 06:01:57;;;;;;;6.60;5.30;;;15.40;97.10;;;;;;5077933;28;20025;-66
2022/08/08 06:04:33;;;;;;;8.35;5.22;;;15.50;96.80;;;;;;5076407;28;20439;-67
2022/08/08 06:06:59;;;;;;;8.15;4.97;;;15.70;96.40;;;;;;5061309;28;20110;-67
2022/08/08 06:09:33;;;;;;;5.97;4.43;;;15.90;95.80;;;;;;5070988;28;20029;-66
2022/08/08 06:12:00;;;;;;;7.20;4.95;;;16.00;95.70;;;;;;5067292;28;20021;-66
2022/08/08 06:14:28;;;;;;;7.18;4.20;;;16.20;94.90;;;;;;5076356;28;20430;-67
2022/08/08 06:16:59;;;;;;;6.82;3.42;;;16.30;93.70;;;;;;5069794;28;20432;-67
2022/08/08 06:19:24;;;;;;;5.18;3.78;;;16.30;93.10;;;;;;5066784;28;20020;-66
2022/08/08 06:21:51;;;;;;;5.82;3.92;;;16.40;92.70;;;;;;5062438;28;20035;-66
2022/08/08 06:24:17;;;;;;;6.10;4.10;;;16.40;92.70;;;;;;5062015;28;20484;-66
2022/08/08 06:26:54;;;;;;;5.60;3.95;;;16.50;92.80;;;;;;5073348;28;20035;-66
2022/08/08 06:29:40;;;;;;;6.47;3.75;;;16.60;92.40;;;;;;5077686;28;20082;-66
2022/08/08 06:32:13;;;;;;;6.85;4.32;;;16.70;92.50;;;;;;5065247;28;20048;-67
2022/08/08 06:34:41;;;;;;;6.65;4.07;;;16.80;92.10;;;;;;5075768;28;20025;-68
2022/08/08 06:37:12;;;;;;;5.85;3.60;;;16.80;92.00;;;;;;5076783;28;20020;-67
2022/08/08 06:39:43;;;;;;;5.32;3.55;;;16.90;92.00;;;;;;5073468;28;20040;-66
2022/08/08 06:42:13;;;;;;;5.10;3.33;;;17.00;92.30;;;;;;5077894;28;20032;-66
2022/08/08 06:44:41;;;;;;;6.47;3.65;;;17.10;91.70;;;;;;5076485;28;20028;-67
2022/08/08 06:47:07;;;;;;;5.28;3.30;;;17.20;91.20;;;;;;5076884;28;20048;-66
2022/08/08 06:49:33;;;;;;;5.35;3.40;;;17.30;91.00;;;;;;5076319;28;20443;-66
2022/08/08 06:52:03;;;;;;;7.90;3.47;;;17.50;90.90;;;;;;5077736;28;20024;-66
2022/08/08 06:54:31;;;;;;;6.28;3.30;;;17.60;90.80;;;;;;5066334;28;21013;-66
2022/08/08 06:56:58;;;;;;;5.97;3.92;;;17.80;89.90;;;;;;5077005;28;20024;-66
2022/08/08 06:59:24;;;;;;;5.70;3.58;;;17.90;89.70;;;;;;5060740;28;20064;-66
2022/08/08 07:02:00;;;;;;;5.28;3.80;;;18.10;89.80;;;;;;5060062;28;20060;-66
2022/08/08 07:04:43;;;;;;;6.07;3.47;;;18.30;88.90;;;;;;5076409;28;20077;-65
2022/08/08 07:07:15;;;;;;;5.83;3.70;;;18.50;88.40;;;;;;5062932;28;20484;-66
2022/08/08 07:10:06;;;;;;;6.25;3.85;;;18.70;88.40;;;;;;5070611;28;20275;-66
2022/08/08 07:13:02;;;;;;;5.45;3.20;;;18.90;88.10;;;;;;5065250;28;20037;-67
2022/08/08 07:15:52;;;;;;;7.85;3.60;;;19.10;87.40;;;;;;5074957;28;20417;-67
2022/08/08 07:18:31;;;;;;;5.65;3.28;;;19.30;86.40;;;;;;5075356;28;20048;-67
2022/08/08 07:21:03;;;;;;;5.65;3.42;;;19.30;86.60;;;;;;5071202;28;20025;-67
2022/08/08 07:23:57;;;;;;;5.65;3.40;;;19.40;86.80;;;;;;5077570;28;20422;-67
2022/08/08 07:26:24;;;;;;;5.93;3.40;;;19.50;86.10;;;;;;5064261;28;20442;-67
2022/08/08 07:28:52;;;;;;;6.25;3.05;;;19.60;85.90;;;;;;5076409;28;20031;-67
2022/08/08 07:31:20;;;;;;;6.28;3.35;;;19.60;86.00;;;;;;5064144;28;20108;-67
2022/08/08 07:33:47;;;;;;;9.27;3.30;;;19.80;85.80;;;;;;5074190;28;20358;-67
2022/08/08 07:36:14;;;;;;;7.05;3.53;;;20.00;85.40;;;;;;5075658;28;20298;-67
2022/08/08 07:38:40;;;;;;;9.40;3.25;;;20.10;85.10;;;;;;5056832;28;20318;-67
2022/08/08 07:41:08;;;;;;;8.50;3.10;;;20.30;81.60;;;;;;5055614;28;20068;-67
2022/08/08 07:43:35;;;;;;;6.32;2.97;;;20.40;83.10;;;;;;5059115;28;20025;-67
2022/08/08 07:46:01;;;;;;;5.60;2.50;;;20.60;80.90;;;;;;5074285;28;20093;-67
2022/08/08 07:48:27;;;;;;;5.53;2.30;;;21.20;77.60;;;;;;5084563;28;20024;-67
2022/08/08 07:50:57;;;;;;;4.50;2.17;;;22.10;75.40;;;;;;5076186;28;20025;-68
2022/08/08 07:53:38;;;;;;;4.72;2.40;;;23.20;72.40;;;;;;5056999;28;20108;-67
2022/08/08 07:56:06;;;;;;;4.57;2.10;;;24.40;69.60;;;;;;5074155;28;20291;-67
2022/08/08 07:58:38;;;;;;;4.75;2.00;;;25.50;67.80;;;;;;5066542;28;20021;-66
2022/08/08 08:01:06;;;;;;;4.22;2.08;;;26.20;66.00;;;;;;5058441;28;20025;-67
2022/08/08 08:03:57;;;;;;;6.38;2.30;;;26.50;65.10;;;;;;5059422;28;20029;-66
2022/08/08 08:06:24;;;;;;;5.28;1.90;;;26.40;65.30;;;;;;5074532;28;20052;-67
2022/08/08 08:08:50;;;;;;;4.90;2.13;;;27.00;64.80;;;;;;5077251;28;20376;-67
2022/08/08 08:11:19;;;;;;;5.63;1.92;;;27.10;65.30;;;;;;5059713;28;20051;-66
2022/08/08 08:14:05;;;;;;;5.63;2.08;;;27.40;65.00;;;;;;5064255;28;20135;-67
2022/08/08 08:16:40;;;;;;;5.50;1.75;;;27.10;65.70;;;;;;5069658;28;20029;-67
2022/08/08 08:19:08;;;;;;;6.82;2.20;;;27.60;63.80;;;;;;5074994;28;20028;-67
2022/08/08 08:21:45;;;;;;;6.13;2.10;;;27.90;62.80;;;;;;5066293;28;20036;-67
2022/08/08 08:24:11;;;;;;;5.72;1.98;;;28.10;62.90;;;;;;5067389;28;20368;-66
2022/08/08 08:26:37;;;;;;;4.30;2.20;;;27.90;63.20;;;;;;5066249;28;20021;-66
2022/08/08 08:29:04;;;;;;;5.90;1.98;;;27.50;63.10;;;;;;5081352;28;20029;-66
2022/08/08 08:31:29;;;;;;;4.80;1.98;;;27.20;64.30;;;;;;5071008;28;20103;-66
2022/08/08 08:33:58;;;;;;;3.70;1.90;;;27.50;63.60;;;;;;5069313;28;20111;-67
2022/08/08 08:36:24;;;;;;;4.43;2.08;;;26.80;64.40;;;;;;5080760;28;20059;-66
2022/08/08 08:38:51;;;;;;;5.30;1.98;;;26.10;66.10;;;;;;5096387;28;20361;-67
2022/08/08 08:41:20;;;;;;;6.18;2.10;;;26.90;64.90;;;;;;5077664;28;20074;-66
2022/08/08 08:43:48;;;;;;;6.78;2.10;;;28.00;62.30;;;;;;5066154;28;20338;-66
2022/08/08 08:46:14;;;;;;;3.78;1.95;;;28.30;62.50;;;;;;5073673;28;20052;-66
2022/08/08 08:48:41;;;;;;;5.10;2.20;;;28.80;59.80;;;;;;5075323;28;20082;-67
2022/08/08 08:51:14;;;;;;;5.68;2.10;;;26.90;63.00;;;;;;5066982;28;20028;-66
2022/08/08 08:53:51;;;;;;;5.53;1.92;;;25.60;65.30;;;;;;5068466;28;20025;-66
2022/08/08 08:56:19;;;;;;;4.45;1.98;;;24.90;65.80;;;;;;5065898;28;20035;-66
2022/08/08 08:58:50;;;;;;;4.65;2.20;;;24.90;64.60;;;;;;5070584;28;20097;-67
2022/08/08 09:01:19;;;;;;;7.75;2.30;;;24.90;66.30;;;;;;5062382;28;20028;-66
2022/08/08 09:03:47;;;;;;;5.85;2.10;;;24.60;66.80;;;;;;5065782;28;20462;-66
2022/08/08 09:06:19;;;;;;;3.70;2.03;;;25.20;66.20;;;;;;5079621;28;20064;-66
2022/08/08 09:08:52;;;;;;;5.43;2.20;;;25.90;64.40;;;;;;5073339;28;20453;-65
2022/08/08 09:11:21;;;;;;;6.60;2.13;;;26.10;64.30;;;;;;5070613;28;20024;-66
2022/08/08 09:13:48;;;;;;;5.95;1.98;;;26.80;62.90;;;;;;5077018;28;20090;-66
2022/08/08 09:16:14;;;;;;;4.25;2.10;;;27.50;61.30;;;;;;5076183;28;20027;-66
2022/08/08 09:18:43;;;;;;;2.97;1.30;;;28.10;60.50;;;;;;5075568;28;20314;-66
2022/08/08 09:21:09;;;;;;;4.28;1.63;;;29.00;57.10;;;;;;5071451;28;20052;-66
2022/08/08 09:23:36;;;;;;;4.70;1.45;;;29.60;55.50;;;;;;5072393;28;20025;-66
2022/08/08 09:26:23;;;;;;;3.20;1.10;;;30.30;55.10;;;;;;5074222;28;20044;-68
2022/08/08 09:28:51;;;;;;;3.60;1.20;;;30.80;49.60;;;;;;5073578;28;20020;-68
2022/08/08 09:31:36;;;;;;;2.70;1.23;;;29.60;50.60;;;;;;5077924;28;20612;-67
2022/08/08 09:34:04;;;;;;;3.53;1.10;;;29.00;53.10;;;;;;5082319;28;20024;-67
2022/08/08 09:36:34;;;;;;;3.90;1.30;;;29.50;52.40;;;;;;5085056;28;20037;-67
2022/08/08 09:39:01;;;;;;;4.07;1.30;;;29.90;50.30;;;;;;5073572;28;20016;-67
2022/08/08 09:41:37;;;;;;;10.75;2.83;;;30.80;50.70;;;;;;5073018;28;20031;-67
2022/08/08 09:44:18;;;;;;;4.82;1.92;;;30.10;54.30;;;;;;5077861;28;20402;-67
2022/08/08 09:46:48;;;;;;;4.50;1.70;;;27.70;58.70;;;;;;5073618;28;20028;-67
2022/08/08 09:49:18;;;;;;;3.63;1.60;;;26.90;59.40;;;;;;5072592;28;20013;-66
2022/08/08 09:51:48;;;;;;;4.80;2.00;;;27.60;60.20;;;;;;5097029;28;20090;-67
2022/08/08 09:54:17;;;;;;;3.70;1.67;;;28.20;58.00;;;;;;5080205;28;20028;-67
2022/08/08 09:56:46;;;;;;;4.47;1.80;;;28.30;59.30;;;;;;5069615;28;20098;-65
2022/08/08 09:59:23;;;;;;;5.03;1.98;;;28.80;58.50;;;;;;5077506;28;20041;-66
2022/08/08 10:01:51;;;;;;;7.38;1.30;;;30.30;54.90;;;;;;5073927;28;20024;-67
2022/08/08 10:04:21;;;;;;;3.65;1.65;;;31.00;50.00;;;;;;5076336;28;20029;-67
2022/08/08 10:06:50;;;;;;;6.35;1.80;;;31.20;52.90;;;;;;5077338;28;20023;-67
2022/08/08 10:09:27;;;;;;;4.13;1.77;;;30.80;54.50;;;;;;5031905;28;1148170;-66
2022/08/08 10:11:54;;;;;;;3.40;1.13;;;30.80;54.30;;;;;;5073763;28;20024;-67
2022/08/08 10:14:19;;;;;;;3.95;1.10;;;30.50;49.10;;;;;;5077659;28;20028;-67
2022/08/08 10:16:45;;;;;;;3.03;1.15;;;30.90;47.90;;;;;;5076125;28;20091;-67
2022/08/08 10:19:11;;;;;;;3.10;1.10;;;30.90;49.90;;;;;;5066991;28;20032;-67
2022/08/08 10:21:37;;;;;;;4.60;1.20;;;31.60;47.50;;;;;;5065599;28;20742;-67
2022/08/08 10:24:08;;;;;;;5.70;1.30;;;32.20;46.60;;;;;;5071407;28;20441;-67
2022/08/08 10:26:36;;;;;;;3.40;1.10;;;32.10;45.20;;;;;;5073941;28;20032;-66
2022/08/08 10:29:05;;;;;;;2.67;1.10;;;31.50;46.80;;;;;;5077684;28;20035;-67
2022/08/08 10:34:19;;;;;;;4.22;1.00;;;31.60;46.30;;;;;;5078420;28;20338;-67
2022/08/08 10:36:45;;;;;;;2.95;1.10;;;32.20;46.40;;;;;;5078045;28;20100;-67
2022/08/08 10:39:41;;;;;;;4.22;1.10;;;32.60;46.00;;;;;;5078171;28;20538;-67
2022/08/08 10:42:09;;;;;;;4.78;1.20;;;32.80;45.10;;;;;;5076469;28;20021;-67
2022/08/08 10:44:40;;;;;;;3.70;1.10;;;32.50;45.40;;;;;;5077806;28;20020;-67
2022/08/08 10:47:09;;;;;;;3.47;1.27;;;32.10;45.10;;;;;;5077951;28;20449;-67
2022/08/08 10:49:34;;;;;;;2.25;0.90;;;32.10;43.80;;;;;;5077947;28;20024;-66
2022/08/08 10:52:00;;;;;;;4.07;1.05;;;32.00;44.40;;;;;;5077646;28;20244;-66
2022/08/08 10:54:26;;;;;;;3.38;0.98;;;32.30;44.50;;;;;;5076605;28;20038;-66
2022/08/08 10:56:59;;;;;;;2.72;1.17;;;32.50;46.40;;;;;;5076239;28;20033;-66
2022/08/08 10:59:25;;;;;;;2.22;1.00;;;32.80;44.70;;;;;;5077579;28;20058;-67
2022/08/08 11:01:51;;;;;;;3.22;1.13;;;32.40;43.70;;;;;;5077709;28;20028;-67
2022/08/08 11:04:17;;;;;;;3.13;1.13;;;32.00;45.40;;;;;;5077409;28;20024;-67
2022/08/08 11:06:43;;;;;;;3.40;1.20;;;31.50;45.40;;;;;;5077385;28;20043;-66
2022/08/08 11:09:10;;;;;;;3.20;1.20;;;31.30;47.20;;;;;;5077281;28;20044;-67
2022/08/08 11:11:41;;;;;;;3.25;1.30;;;31.30;45.80;;;;;;5072726;28;20358;-66
2022/08/08 11:14:08;;;;;;;4.20;1.40;;;31.10;46.60;;;;;;5076213;28;20032;-66
2022/08/08 11:16:38;;;;;;;3.40;1.30;;;31.30;47.30;;;;;;5077220;28;20036;-67
2022/08/08 11:19:04;;;;;;;3.35;1.10;;;31.40;47.30;;;;;;5072715;28;20071;-66
2022/08/08 11:21:34;;;;;;;5.32;1.35;;;31.60;47.50;;;;;;5073418;28;20461;-66
2022/08/08 11:24:03;;;;;;;3.60;1.15;;;31.40;46.30;;;;;;5070216;28;20037;-67
2022/08/08 11:26:34;;;;;;;4.28;1.30;;;31.30;45.90;;;;;;5055887;28;20059;-67
2022/08/08 11:29:04;;;;;;;3.33;1.20;;;31.40;46.60;;;;;;5063921;28;20447;-67
2022/08/08 11:31:38;;;;;;;3.67;1.20;;;31.30;45.90;;;;;;5076279;28;20329;-66
2022/08/08 11:34:06;;;;;;;6.07;1.20;;;31.30;46.80;;;;;;5071314;28;20044;-66
2022/08/08 11:36:33;;;;;;;5.13;1.15;;;31.50;47.00;;;;;;5056912;28;20032;-67
2022/08/08 11:39:00;;;;;;;3.17;1.17;;;31.70;46.70;;;;;;5062753;28;20106;-67
2022/08/08 11:41:28;;;;;;;2.30;1.08;;;31.80;46.30;;;;;;5073489;28;20025;-67
2022/08/08 11:43:55;;;;;;;2.55;1.10;;;31.80;45.00;;;;;;5056676;28;20025;-67
2022/08/08 11:46:23;;;;;;;3.40;1.20;;;31.40;45.80;;;;;;5056734;28;20067;-67
2022/08/08 11:48:49;;;;;;;3.40;1.30;;;31.30;46.80;;;;;;5077606;28;20469;-67
2022/08/08 11:51:22;;;;;;;3.00;1.20;;;31.50;47.80;;;;;;5076550;28;20353;-67
2022/08/08 11:53:49;;;;;;;3.83;1.52;;;31.50;47.00;;;;;;5062718;28;20058;-67
2022/08/08 11:56:23;;;;;;;4.13;1.20;;;31.60;45.70;;;;;;5073760;28;20423;-66
2022/08/08 11:58:50;;;;;;;3.47;1.30;;;31.00;46.40;;;;;;5077106;28;20029;-66
2022/08/08 12:01:16;;;;;;;3.67;1.20;;;30.80;48.40;;;;;;5076639;28;20069;-66
2022/08/08 12:03:46;;;;;;;3.35;1.30;;;30.60;46.90;;;;;;5058291;28;20111;-66
2022/08/08 12:06:17;;;;;;;4.55;1.30;;;30.30;48.30;;;;;;5056392;28;20025;-67
2022/08/08 12:08:43;;;;;;;7.68;1.50;;;29.90;47.70;;;;;;5075590;28;20044;-66
2022/08/08 12:11:13;;;;;;;3.28;1.40;;;30.10;48.30;;;;;;5073545;28;20083;-66
2022/08/08 12:13:40;;;;;;;3.55;1.42;;;30.30;47.30;;;;;;5058175;28;20108;-65
2022/08/08 12:16:08;;;;;;;3.35;1.23;;;30.40;48.20;;;;;;5056220;28;20032;-66
2022/08/08 12:18:45;;;;;;;3.25;1.35;;;30.80;47.90;;;;;;5071336;28;20044;-65
2022/08/08 12:21:33;;;;;;;2.80;1.10;;;30.90;46.40;;;;;;5056278;28;20345;-68
2022/08/08 12:24:07;;;;;;;2.42;1.10;;;30.90;47.60;;;;;;5075804;28;20025;-68
2022/08/08 12:26:52;;;;;;;2.97;1.52;;;31.00;46.50;;;;;;5073253;28;20017;-67
2022/08/08 12:29:24;;;;;;;3.10;1.17;;;30.90;47.60;;;;;;5075395;28;20043;-67
2022/08/08 12:32:19;;;;;;;3.22;1.25;;;31.20;46.80;;;;;;5076604;28;20106;-67
2022/08/08 12:34:55;;;;;;;3.00;1.30;;;31.30;46.50;;;;;;5052196;28;20096;-67
2022/08/08 12:37:25;;;;;;;3.92;1.10;;;31.00;47.20;;;;;;5075787;28;20029;-67
2022/08/08 12:39:51;;;;;;;4.65;1.65;;;30.90;46.90;;;;;;5073149;28;20322;-67
2022/08/08 12:42:17;;;;;;;2.90;1.17;;;31.00;47.30;;;;;;5071200;28;20033;-67
2022/08/08 12:44:44;;;;;;;2.95;1.33;;;30.90;45.70;;;;;;5067105;28;20031;-67
2022/08/08 12:47:11;;;;;;;2.90;1.10;;;30.90;45.70;;;;;;5077019;28;20409;-66
2022/08/08 12:49:38;;;;;;;3.28;1.30;;;30.60;46.60;;;;;;5075846;28;20024;-67
2022/08/08 12:52:06;;;;;;;2.85;1.00;;;30.70;45.40;;;;;;5072186;28;20029;-67
2022/08/08 12:54:37;;;;;;;3.17;1.30;;;30.70;46.40;;;;;;5054755;28;20028;-67
2022/08/08 12:57:19;;;;;;;3.47;1.20;;;30.90;45.90;;;;;;5059925;28;20086;-67
2022/08/08 12:59:50;;;;;;;3.42;1.10;;;30.90;45.40;;;;;;5055709;28;20064;-67
2022/08/08 13:02:33;;;;;;;3.40;1.30;;;30.70;45.20;;;;;;5060777;28;20021;-67
2022/08/08 13:05:01;;;;;;;2.85;1.20;;;30.70;46.00;;;;;;5078948;28;20036;-67
2022/08/08 13:07:35;;;;;;;2.88;1.33;;;30.90;45.30;;;;;;5082005;28;20036;-67
2022/08/08 13:10:03;;;;;;;4.65;1.30;;;31.10;46.00;;;;;;5065433;28;20516;-67
2022/08/08 13:12:29;;;;;;;2.60;1.00;;;31.00;46.40;;;;;;5069560;28;20032;-67
2022/08/08 13:14:56;;;;;;;3.50;1.30;;;31.00;45.30;;;;;;5077159;28;20108;-68
2022/08/08 13:17:26;;;;;;;2.90;1.10;;;31.00;45.90;;;;;;5075813;28;20413;-67
2022/08/08 13:19:54;;;;;;;2.53;1.10;;;31.30;43.90;;;;;;5075429;28;20028;-67
2022/08/08 13:22:21;;;;;;;3.00;1.15;;;31.70;46.70;;;;;;5055460;28;20423;-67
2022/08/08 13:24:48;;;;;;;4.85;1.23;;;32.10;43.10;;;;;;5054383;28;20021;-67
2022/08/08 13:27:18;;;;;;;2.70;1.00;;;32.40;43.20;;;;;;5070522;28;20096;-67